Time;durP1;ratioP1;P1;durP2;ratioP2;P2;SDS_P1;SDS_P2;PMS_P1;PMS_P2;Temp;Humidity;BMP_temperature;BMP_pressure;BME280_temperature;BME280_humidity;BME280_pressure;Samples;Min_cycle;Max_cycle;Signal;HPM_P1;HPM_P2
2021/09/14 00:02:12;;;;;;;0.00;0.00;;;20.70;68.80;;;;;;5033486;28;20457;-76
2021/09/14 00:04:37;;;;;;;0.00;0.00;;;20.70;68.90;;;;;;5035510;28;20457;-75
2021/09/14 00:07:03;;;;;;;0.00;0.00;;;20.70;69.00;;;;;;5036472;28;20025;-75
2021/09/14 00:09:29;;;;;;;0.00;0.00;;;20.70;69.10;;;;;;5036712;28;20021;-75
2021/09/14 00:11:55;;;;;;;0.00;0.00;;;20.70;69.20;;;;;;5035351;28;20393;-76
2021/09/14 00:14:21;;;;;;;0.00;0.00;;;20.70;69.30;;;;;;5036828;28;20022;-75
2021/09/14 00:16:47;;;;;;;0.00;0.00;;;20.70;69.50;;;;;;5036373;28;20029;-76
2021/09/14 00:19:13;;;;;;;0.00;0.00;;;20.70;69.60;;;;;;5036489;28;20036;-77
2021/09/14 00:21:39;;;;;;;0.00;0.00;;;20.70;69.70;;;;;;5036998;28;20018;-75
2021/09/14 00:24:04;;;;;;;0.00;0.00;;;20.70;69.70;;;;;;5036449;28;20045;-75
2021/09/14 00:26:30;;;;;;;0.00;0.00;;;20.70;69.90;;;;;;5035318;28;20076;-76
2021/09/14 00:28:56;;;;;;;0.00;0.00;;;20.70;69.90;;;;;;5036760;28;20032;-76
2021/09/14 00:31:22;;;;;;;0.00;0.00;;;20.70;69.90;;;;;;5036239;28;20025;-76
2021/09/14 00:33:47;;;;;;;0.00;0.00;;;20.60;69.90;;;;;;5035796;28;20470;-76
2021/09/14 00:36:13;;;;;;;0.00;0.00;;;20.70;69.90;;;;;;5035717;28;20070;-76
2021/09/14 00:38:39;;;;;;;0.00;0.00;;;20.70;69.90;;;;;;5036310;28;20033;-76
2021/09/14 00:41:04;;;;;;;0.00;0.00;;;20.70;69.90;;;;;;5036498;28;20036;-77
2021/09/14 00:43:30;;;;;;;0.00;0.00;;;20.70;70.00;;;;;;5036422;28;20465;-75
2021/09/14 00:45:56;;;;;;;0.00;0.00;;;20.70;70.10;;;;;;5035618;28;20049;-76
2021/09/14 00:48:22;;;;;;;0.00;0.00;;;20.60;70.10;;;;;;5035861;28;20061;-76
2021/09/14 00:50:48;;;;;;;0.00;0.00;;;20.60;70.20;;;;;;5035566;28;20037;-76
2021/09/14 00:53:15;;;;;;;0.00;0.00;;;20.60;70.40;;;;;;5036166;28;20033;-75
2021/09/14 00:55:41;;;;;;;0.00;0.00;;;20.60;70.60;;;;;;5035752;28;20042;-75
2021/09/14 00:58:09;;;;;;;0.00;0.00;;;20.50;70.70;;;;;;5035743;28;20046;-75
2021/09/14 01:00:34;;;;;;;0.00;0.00;;;20.50;70.90;;;;;;5036043;28;20021;-77
2021/09/14 01:03:01;;;;;;;0.00;0.00;;;20.50;71.60;;;;;;5035535;28;20487;-76
2021/09/14 01:05:26;;;;;;;0.00;0.00;;;20.50;71.20;;;;;;5035642;28;20037;-76
2021/09/14 01:07:53;;;;;;;0.00;0.00;;;20.40;71.20;;;;;;5035682;28;20116;-76
2021/09/14 01:10:19;;;;;;;0.00;0.00;;;20.40;71.50;;;;;;5035689;28;20057;-77
2021/09/14 01:12:47;;;;;;;0.00;0.00;;;20.40;71.60;;;;;;5050819;28;20057;-76
2021/09/14 01:15:12;;;;;;;0.00;0.00;;;20.30;71.70;;;;;;5035718;28;20067;-76
2021/09/14 01:17:39;;;;;;;0.00;0.00;;;20.30;71.80;;;;;;5035877;28;20423;-74
2021/09/14 01:20:05;;;;;;;0.00;0.00;;;20.30;71.90;;;;;;5035602;28;20030;-75
2021/09/14 01:22:32;;;;;;;0.00;0.00;;;20.30;72.10;;;;;;5035480;28;20108;-75
2021/09/14 01:24:59;;;;;;;0.00;0.00;;;20.30;72.20;;;;;;5034001;28;20033;-76
2021/09/14 01:27:25;;;;;;;0.00;0.00;;;20.20;72.40;;;;;;5035272;28;20029;-76
2021/09/14 01:32:35;;;;;;;0.00;0.00;;;20.20;72.70;;;;;;5035988;28;20447;-76
2021/09/14 01:35:28;;;;;;;0.00;0.00;;;20.20;73.20;;;;;;5035153;28;20033;-74
2021/09/14 01:37:53;;;;;;;0.00;0.00;;;20.20;73.00;;;;;;5034657;28;20025;-76
2021/09/14 01:40:20;;;;;;;0.00;0.00;;;20.20;72.90;;;;;;5035421;28;20032;-75
2021/09/14 01:42:46;;;;;;;0.00;0.00;;;20.20;73.10;;;;;;5035177;28;20488;-75
2021/09/14 01:45:12;;;;;;;0.00;0.00;;;20.20;73.30;;;;;;5035070;28;20041;-75
2021/09/14 01:47:39;;;;;;;0.00;0.00;;;20.20;73.40;;;;;;5034034;28;20378;-74
2021/09/14 01:50:08;;;;;;;0.00;0.00;;;20.20;73.60;;;;;;5034178;28;20026;-76
2021/09/14 01:52:34;;;;;;;0.00;0.00;;;20.20;73.60;;;;;;5033466;28;20033;-75
2021/09/14 01:55:04;;;;;;;0.00;0.00;;;20.30;73.60;;;;;;5033568;28;20465;-74
2021/09/14 01:57:41;;;;;;;0.00;0.00;;;20.30;73.70;;;;;;5034860;28;20045;-75
2021/09/14 02:00:14;;;;;;;0.00;0.00;;;20.30;73.70;;;;;;5035283;28;20041;-75
2021/09/14 02:05:11;;;;;;;0.00;0.00;;;20.30;73.70;;;;;;5034604;28;20044;-74
2021/09/14 02:59:26;;;;;;;0.00;0.00;;;20.50;73.60;;;;;;5033866;28;20497;-76
2021/09/14 03:01:52;;;;;;;0.00;0.00;;;20.50;73.80;;;;;;5033679;28;20033;-74
2021/09/14 03:04:17;;;;;;;0.00;0.00;;;20.50;74.10;;;;;;5033381;28;20420;-73
2021/09/14 03:06:43;;;;;;;0.00;0.00;;;20.50;74.40;;;;;;5033307;28;20022;-75
2021/09/14 03:09:09;;;;;;;0.00;0.00;;;20.40;74.40;;;;;;5032322;28;20047;-75
2021/09/14 03:11:34;;;;;;;0.00;0.00;;;20.40;74.50;;;;;;5033838;28;20030;-75
2021/09/14 03:14:00;;;;;;;0.00;0.00;;;20.40;74.60;;;;;;5032304;28;20034;-75
2021/09/14 03:16:26;;;;;;;0.00;0.00;;;20.40;74.70;;;;;;5033201;28;20116;-75
2021/09/14 03:18:52;;;;;;;0.00;0.00;;;20.40;74.70;;;;;;5033524;28;20079;-75
2021/09/14 03:21:18;;;;;;;0.00;0.00;;;20.40;74.70;;;;;;5032486;28;20029;-75
2021/09/14 03:23:44;;;;;;;0.00;0.00;;;20.40;74.80;;;;;;5033824;28;20128;-75
2021/09/14 03:26:09;;;;;;;0.00;0.00;;;20.40;74.80;;;;;;5033458;28;20033;-75
2021/09/14 03:28:35;;;;;;;0.00;0.00;;;20.40;74.80;;;;;;5033505;28;20033;-75
2021/09/14 03:31:01;;;;;;;0.00;0.00;;;20.40;74.90;;;;;;5033252;28;20530;-75
2021/09/14 03:33:28;;;;;;;0.00;0.00;;;20.40;74.90;;;;;;5033257;28;20030;-75
2021/09/14 03:35:53;;;;;;;0.00;0.00;;;20.40;74.90;;;;;;5033632;28;20025;-76
2021/09/14 03:38:19;;;;;;;0.00;0.00;;;20.40;74.90;;;;;;5035580;28;20029;-75
2021/09/14 03:40:45;;;;;;;0.00;0.00;;;20.40;74.90;;;;;;5037130;28;20167;-75
2021/09/14 03:43:14;;;;;;;0.00;0.00;;;20.40;74.90;;;;;;5036914;28;20060;-76
2021/09/14 03:45:46;;;;;;;0.00;0.00;;;20.40;74.80;;;;;;5037589;28;20033;-76
2021/09/14 03:48:12;;;;;;;0.00;0.00;;;20.40;74.80;;;;;;5037308;28;20412;-76
2021/09/14 03:50:38;;;;;;;0.00;0.00;;;20.40;74.70;;;;;;5036933;28;20021;-76
2021/09/14 03:53:04;;;;;;;0.00;0.00;;;20.30;74.60;;;;;;5037114;28;20029;-75
2021/09/14 03:55:30;;;;;;;0.15;0.00;;;20.40;74.60;;;;;;5036681;28;20046;-75
2021/09/14 03:57:55;;;;;;;0.00;0.00;;;20.40;74.50;;;;;;5037047;28;20104;-76
2021/09/14 04:00:21;;;;;;;0.00;0.00;;;20.40;74.50;;;;;;5037250;28;20485;-76
2021/09/14 04:02:50;;;;;;;0.00;0.00;;;20.40;74.50;;;;;;5036831;28;20135;-76
2021/09/14 04:07:53;;;;;;;0.00;0.00;;;20.50;74.60;;;;;;5036575;28;20026;-77
2021/09/14 04:10:20;;;;;;;0.00;0.00;;;20.50;74.50;;;;;;5036285;28;20025;-75
2021/09/14 04:12:45;;;;;;;0.00;0.00;;;20.60;74.40;;;;;;5036776;28;20030;-76
2021/09/14 04:15:11;;;;;;;0.00;0.00;;;20.60;74.40;;;;;;5036003;28;20104;-76
2021/09/14 04:17:37;;;;;;;0.00;0.00;;;20.60;74.40;;;;;;5036269;28;20053;-75
2021/09/14 04:20:03;;;;;;;0.00;0.00;;;20.60;74.30;;;;;;5036907;28;20026;-76
2021/09/14 04:22:29;;;;;;;0.00;0.00;;;20.60;74.30;;;;;;5035126;28;20449;-75
2021/09/14 04:24:55;;;;;;;0.00;0.00;;;20.60;74.20;;;;;;5034888;28;20029;-76
2021/09/14 04:27:21;;;;;;;0.00;0.00;;;20.70;74.20;;;;;;5036498;28;20029;-76
2021/09/14 04:29:47;;;;;;;0.00;0.00;;;20.70;74.20;;;;;;5036267;28;20029;-76
2021/09/14 04:32:13;;;;;;;0.00;0.00;;;20.70;74.20;;;;;;5035148;28;20022;-76
2021/09/14 04:34:38;;;;;;;0.00;0.00;;;20.70;74.20;;;;;;5036414;28;20471;-76
2021/09/14 04:37:04;;;;;;;0.00;0.00;;;20.70;74.20;;;;;;5036402;28;20030;-77
2021/09/14 04:39:30;;;;;;;0.00;0.00;;;20.70;74.00;;;;;;5035730;28;20029;-76
2021/09/14 04:41:56;;;;;;;0.00;0.00;;;20.80;74.00;;;;;;5036195;28;20109;-76
2021/09/14 04:44:21;;;;;;;0.00;0.00;;;20.80;73.80;;;;;;5035948;28;20565;-75
2021/09/14 04:46:47;;;;;;;0.00;0.00;;;20.80;73.70;;;;;;5035706;28;20036;-77
2021/09/14 04:49:13;;;;;;;0.00;0.00;;;20.80;73.70;;;;;;5035419;28;20025;-76
2021/09/14 04:51:38;;;;;;;0.00;0.00;;;20.80;73.60;;;;;;5035800;28;20076;-77
2021/09/14 04:54:04;;;;;;;0.00;0.00;;;20.90;73.60;;;;;;5034510;28;20036;-76
2021/09/14 04:56:30;;;;;;;0.00;0.00;;;21.00;73.40;;;;;;5034353;28;20064;-76
2021/09/14 04:58:55;;;;;;;0.00;0.00;;;21.10;73.30;;;;;;5035787;28;20436;-76
2021/09/14 05:01:21;;;;;;;0.00;0.00;;;21.10;73.20;;;;;;5035909;28;20025;-76
2021/09/14 05:03:49;;;;;;;0.00;0.00;;;21.10;73.20;;;;;;5035474;28;20030;-74
2021/09/14 05:06:15;;;;;;;0.00;0.00;;;21.20;73.20;;;;;;5034443;28;20041;-76
2021/09/14 05:08:41;;;;;;;0.00;0.00;;;21.20;73.10;;;;;;5034308;28;20041;-75
2021/09/14 05:11:07;;;;;;;0.00;0.00;;;21.30;73.70;;;;;;5034209;28;20032;-75
2021/09/14 05:13:34;;;;;;;0.00;0.00;;;21.40;72.90;;;;;;5035250;28;20453;-75
2021/09/14 05:15:59;;;;;;;0.00;0.00;;;21.50;72.60;;;;;;5035540;28;20029;-75
2021/09/14 05:18:26;;;;;;;0.00;0.00;;;21.60;72.40;;;;;;5035057;28;20469;-74
2021/09/14 05:20:53;;;;;;;0.00;0.00;;;21.70;72.10;;;;;;5035247;28;20430;-77
2021/09/14 05:23:30;;;;;;;0.00;0.00;;;21.90;71.80;;;;;;5035083;28;20029;-76
2021/09/14 05:25:57;;;;;;;0.00;0.00;;;22.00;71.20;;;;;;5035054;28;20040;-76
2021/09/14 05:28:23;;;;;;;0.00;0.00;;;22.10;70.70;;;;;;5034929;28;20029;-76
2021/09/14 05:30:49;;;;;;;0.00;0.00;;;22.30;70.30;;;;;;5035204;28;20096;-76
2021/09/14 05:33:15;;;;;;;0.00;0.00;;;22.40;69.90;;;;;;5034408;28;20032;-76
2021/09/14 05:35:47;;;;;;;0.00;0.00;;;22.50;69.60;;;;;;5034249;28;20030;-76
2021/09/14 05:38:15;;;;;;;0.00;0.00;;;22.60;69.20;;;;;;5049625;28;20030;-77
2021/09/14 05:40:41;;;;;;;0.00;0.00;;;22.60;68.90;;;;;;5034575;28;20033;-76
2021/09/14 05:43:07;;;;;;;0.00;0.00;;;22.60;68.80;;;;;;5034701;28;20113;-77
2021/09/14 05:45:33;;;;;;;0.00;0.00;;;22.60;68.80;;;;;;5035099;28;20036;-76
2021/09/14 05:48:00;;;;;;;0.00;0.00;;;22.60;68.60;;;;;;5034917;28;20025;-78
2021/09/14 05:50:26;;;;;;;0.00;0.00;;;22.50;68.60;;;;;;5034597;28;20423;-76
2021/09/14 05:52:52;;;;;;;0.00;0.00;;;22.50;68.70;;;;;;5034444;28;20370;-77
2021/09/14 05:55:17;;;;;;;0.00;0.00;;;22.40;68.60;;;;;;5032755;28;20036;-76
2021/09/14 05:57:43;;;;;;;0.00;0.00;;;22.40;68.70;;;;;;5034089;28;20025;-76
2021/09/14 06:00:10;;;;;;;0.00;0.00;;;22.40;68.60;;;;;;5033735;28;20359;-75
2021/09/14 06:02:36;;;;;;;0.00;0.00;;;22.50;68.20;;;;;;5033143;28;20037;-75
2021/09/14 06:05:04;;;;;;;0.00;0.00;;;22.60;67.90;;;;;;5033858;28;20061;-76
2021/09/14 06:07:30;;;;;;;0.00;0.00;;;22.70;67.30;;;;;;5034300;28;20058;-75
2021/09/14 06:09:56;;;;;;;0.00;0.00;;;22.90;66.90;;;;;;5034056;28;20025;-75
2021/09/14 06:12:22;;;;;;;0.00;0.00;;;23.10;66.00;;;;;;5034590;28;20067;-76
2021/09/14 06:14:48;;;;;;;0.00;0.00;;;23.30;65.50;;;;;;5034629;28;20359;-77
2021/09/14 06:17:14;;;;;;;0.00;0.00;;;23.50;64.80;;;;;;5034267;28;20035;-75
2021/09/14 06:19:39;;;;;;;0.00;0.00;;;23.60;64.00;;;;;;5034082;28;20026;-74
2021/09/14 06:22:05;;;;;;;0.00;0.00;;;23.80;63.70;;;;;;5035407;28;20092;-74
2021/09/14 06:24:31;;;;;;;0.00;0.00;;;24.00;63.40;;;;;;5034020;28;20535;-75
2021/09/14 06:26:57;;;;;;;0.00;0.00;;;24.20;62.70;;;;;;5035184;28;20120;-75
2021/09/14 06:29:23;;;;;;;0.00;0.00;;;24.50;62.00;;;;;;5034234;28;20048;-75
2021/09/14 06:31:48;;;;;;;0.00;0.00;;;24.70;61.40;;;;;;5034406;28;20029;-76
2021/09/14 06:34:14;;;;;;;0.00;0.00;;;24.90;60.80;;;;;;5034045;28;20041;-75
2021/09/14 06:36:40;;;;;;;0.00;0.00;;;25.00;60.80;;;;;;5034153;28;20021;-76
2021/09/14 06:39:06;;;;;;;0.00;0.00;;;25.20;59.80;;;;;;5034667;28;20028;-76
2021/09/14 06:41:32;;;;;;;0.00;0.00;;;25.30;59.40;;;;;;5032686;28;20114;-76
2021/09/14 06:43:58;;;;;;;0.00;0.00;;;25.40;59.10;;;;;;5033861;28;20092;-75
2021/09/14 06:46:24;;;;;;;0.00;0.00;;;25.40;58.70;;;;;;5034066;28;20504;-76
2021/09/14 06:48:51;;;;;;;0.00;0.00;;;25.50;58.70;;;;;;5033805;28;20120;-76
2021/09/14 06:51:17;;;;;;;0.00;0.00;;;25.60;58.80;;;;;;5033662;28;20045;-76
2021/09/14 06:53:43;;;;;;;0.00;0.00;;;25.70;58.50;;;;;;5033760;28;20026;-76
2021/09/14 06:56:09;;;;;;;0.00;0.00;;;25.70;58.40;;;;;;5033881;28;20496;-76
2021/09/14 06:58:35;;;;;;;0.00;0.00;;;25.90;58.20;;;;;;5034060;28;20031;-75
2021/09/14 07:01:01;;;;;;;0.00;0.00;;;26.10;57.30;;;;;;5049175;28;20040;-76
2021/09/14 07:03:26;;;;;;;0.00;0.00;;;26.30;56.70;;;;;;5033386;28;20034;-76
2021/09/14 07:05:52;;;;;;;0.00;0.00;;;26.50;56.10;;;;;;5033584;28;20037;-74
2021/09/14 07:08:18;;;;;;;0.00;0.00;;;26.80;55.10;;;;;;5033414;28;20355;-76
2021/09/14 07:10:44;;;;;;;0.00;0.00;;;26.90;54.60;;;;;;5033991;28;20033;-75
2021/09/14 07:13:10;;;;;;;0.00;0.00;;;27.10;53.50;;;;;;5037362;28;20040;-77
2021/09/14 07:15:36;;;;;;;0.00;0.00;;;27.30;52.80;;;;;;5037655;28;20363;-76
2021/09/14 07:18:02;;;;;;;0.00;0.00;;;27.40;52.10;;;;;;5037324;28;20045;-75
2021/09/14 07:20:28;;;;;;;0.00;0.00;;;27.50;51.70;;;;;;5038026;28;20432;-75
2021/09/14 07:22:54;;;;;;;0.00;0.00;;;27.50;51.40;;;;;;5036304;28;20129;-75
2021/09/14 07:25:19;;;;;;;0.00;0.00;;;27.50;51.50;;;;;;5036885;28;20025;-75
2021/09/14 07:27:45;;;;;;;0.00;0.00;;;27.60;51.20;;;;;;5037731;28;20022;-75
2021/09/14 07:30:11;;;;;;;0.00;0.00;;;27.60;51.10;;;;;;5037023;28;20033;-75
2021/09/14 07:32:37;;;;;;;0.00;0.00;;;27.80;50.90;;;;;;5037517;28;20037;-76
2021/09/14 07:35:04;;;;;;;0.00;0.00;;;27.90;51.10;;;;;;5037790;28;20026;-76
2021/09/14 07:37:31;;;;;;;0.00;0.00;;;28.10;49.90;;;;;;5037680;28;20021;-75
2021/09/14 07:39:57;;;;;;;0.00;0.00;;;28.20;49.20;;;;;;5037351;28;20026;-75
2021/09/14 07:42:22;;;;;;;0.00;0.00;;;28.30;49.00;;;;;;5037232;28;20025;-76
2021/09/14 07:44:50;;;;;;;0.00;0.00;;;28.50;48.90;;;;;;5036793;28;20025;-76
2021/09/14 07:47:17;;;;;;;0.00;0.00;;;28.50;48.50;;;;;;5035900;28;20197;-76
2021/09/14 07:49:45;;;;;;;0.00;0.00;;;28.70;48.00;;;;;;5037404;28;20034;-76
2021/09/14 07:52:12;;;;;;;0.00;0.00;;;28.80;48.00;;;;;;5035972;28;20055;-75
2021/09/14 07:54:37;;;;;;;0.00;0.00;;;29.20;47.90;;;;;;5037354;28;20112;-75
2021/09/14 07:57:04;;;;;;;0.00;0.00;;;29.50;47.60;;;;;;5037476;28;20438;-78
2021/09/14 07:59:30;;;;;;;0.00;0.00;;;29.90;47.20;;;;;;5036571;28;20458;-78
2021/09/14 08:01:56;;;;;;;0.00;0.00;;;30.20;46.50;;;;;;5036891;28;20083;-75
2021/09/14 08:04:22;;;;;;;0.00;0.00;;;30.30;46.00;;;;;;5036675;28;20045;-76
2021/09/14 08:06:48;;;;;;;0.00;0.00;;;30.40;45.40;;;;;;5035520;28;20098;-75
2021/09/14 08:09:14;;;;;;;0.00;0.00;;;30.40;45.10;;;;;;5036820;28;20040;-77
2021/09/14 08:11:40;;;;;;;0.00;0.00;;;30.40;45.00;;;;;;5051654;28;20025;-75
2021/09/14 08:14:05;;;;;;;0.00;0.00;;;30.40;44.70;;;;;;5036675;28;20091;-75
2021/09/14 08:16:31;;;;;;;0.00;0.00;;;30.40;45.00;;;;;;5037190;28;20037;-75
2021/09/14 08:18:57;;;;;;;0.00;0.00;;;30.50;45.30;;;;;;5036726;28;20449;-75
2021/09/14 08:21:23;;;;;;;0.00;0.00;;;30.50;45.50;;;;;;5035238;28;20492;-76
2021/09/14 08:23:49;;;;;;;0.00;0.00;;;30.40;45.50;;;;;;5035792;28;20461;-76
2021/09/14 08:26:15;;;;;;;0.00;0.00;;;30.60;45.90;;;;;;5035167;28;20041;-76
2021/09/14 08:28:41;;;;;;;0.00;0.00;;;30.80;46.00;;;;;;5036454;28;20022;-76
2021/09/14 08:31:07;;;;;;;0.00;0.00;;;31.00;46.00;;;;;;5036184;28;20025;-75
2021/09/14 08:33:33;;;;;;;0.00;0.00;;;31.30;45.90;;;;;;5036050;28;20040;-76
2021/09/14 08:35:58;;;;;;;0.00;0.00;;;32.10;46.10;;;;;;5035859;28;20021;-76
2021/09/14 08:38:24;;;;;;;0.00;0.00;;;33.10;45.60;;;;;;5036085;28;20029;-75
2021/09/14 08:40:50;;;;;;;0.00;0.00;;;34.20;44.50;;;;;;5036789;28;20124;-75
2021/09/14 08:43:16;;;;;;;0.00;0.00;;;35.20;43.60;;;;;;5035749;28;20033;-76
2021/09/14 08:45:42;;;;;;;0.00;0.00;;;36.20;42.00;;;;;;5035664;28;20591;-76
2021/09/14 08:48:09;;;;;;;0.00;0.00;;;37.00;40.80;;;;;;5036435;28;20068;-75
2021/09/14 08:50:35;;;;;;;0.00;0.00;;;37.80;39.90;;;;;;5035327;28;20037;-76
2021/09/14 08:53:00;;;;;;;0.00;0.00;;;38.60;39.30;;;;;;5036198;28;20076;-76
2021/09/14 08:55:27;;;;;;;0.03;0.03;;;39.20;38.70;;;;;;5036264;28;20077;-76
2021/09/14 08:57:54;;;;;;;0.00;0.00;;;39.70;38.00;;;;;;5036599;28;20407;-77
2021/09/14 09:00:36;;;;;;;0.00;0.00;;;40.10;37.70;;;;;;5036279;28;20034;-74
2021/09/14 09:03:02;;;;;;;0.00;0.00;;;40.60;37.00;;;;;;5034278;28;20473;-77
2021/09/14 09:05:33;;;;;;;0.00;0.00;;;40.70;36.70;;;;;;5035524;28;20431;-76
2021/09/14 09:08:01;;;;;;;0.00;0.00;;;40.70;36.70;;;;;;5036036;28;20025;-75
2021/09/14 09:10:31;;;;;;;0.00;0.00;;;41.10;36.20;;;;;;5035453;28;20026;-76
2021/09/14 09:12:59;;;;;;;0.00;0.00;;;41.20;36.50;;;;;;5035721;28;20463;-75
2021/09/14 09:15:33;;;;;;;0.00;0.00;;;40.30;36.00;;;;;;5035289;28;20025;-76
2021/09/14 09:18:17;;;;;;;0.00;0.00;;;38.90;36.40;;;;;;5035844;28;20090;-76
2021/09/14 09:20:44;;;;;;;0.00;0.00;;;37.50;37.30;;;;;;5035808;28;20065;-76
2021/09/14 09:23:13;;;;;;;0.00;0.00;;;36.30;38.20;;;;;;5035557;28;20030;-76
2021/09/14 09:25:39;;;;;;;0.00;0.00;;;35.50;38.70;;;;;;5035390;28;20036;-76
2021/09/14 09:28:16;;;;;;;0.00;0.00;;;35.80;39.00;;;;;;5035055;28;20478;-77
2021/09/14 09:30:51;;;;;;;0.00;0.00;;;35.70;38.70;;;;;;5036424;28;20030;-76
2021/09/14 09:33:23;;;;;;;0.00;0.00;;;35.00;38.90;;;;;;5035615;28;20059;-76
2021/09/14 09:35:49;;;;;;;0.00;0.00;;;34.30;39.60;;;;;;5032836;28;20374;-75
2021/09/14 09:38:16;;;;;;;0.00;0.00;;;33.70;40.30;;;;;;5035119;28;20029;-74
2021/09/14 09:40:43;;;;;;;0.00;0.00;;;32.80;41.10;;;;;;5035024;28;20032;-76
2021/09/14 09:43:13;;;;;;;0.00;0.00;;;32.10;41.80;;;;;;5035003;28;20029;-76
2021/09/14 09:45:48;;;;;;;0.00;0.00;;;31.40;42.80;;;;;;5034280;28;20036;-76
2021/09/14 09:48:18;;;;;;;0.00;0.00;;;31.20;43.50;;;;;;5034349;28;20409;-76
2021/09/14 09:50:46;;;;;;;0.00;0.00;;;32.30;43.20;;;;;;5033383;28;20500;-74
2021/09/14 09:53:22;;;;;;;0.00;0.00;;;33.70;41.60;;;;;;5035113;28;20029;-76
2021/09/14 09:55:50;;;;;;;0.00;0.00;;;35.30;40.30;;;;;;5034742;28;20069;-78
2021/09/14 09:58:16;;;;;;;0.00;0.00;;;36.70;39.10;;;;;;5034617;28;20079;-76
2021/09/14 10:00:44;;;;;;;0.00;0.00;;;36.60;38.10;;;;;;5034981;28;20026;-75
2021/09/14 10:03:26;;;;;;;0.00;0.00;;;36.00;38.30;;;;;;5035001;28;20025;-75
2021/09/14 10:05:55;;;;;;;0.00;0.00;;;36.10;38.50;;;;;;5034712;28;20469;-76
2021/09/14 10:08:23;;;;;;;0.00;0.00;;;37.00;38.40;;;;;;5034701;28;20075;-76
2021/09/14 10:10:58;;;;;;;0.00;0.00;;;38.20;37.60;;;;;;5034367;28;20026;-76
2021/09/14 10:13:36;;;;;;;0.00;0.00;;;39.30;36.00;;;;;;5034635;28;20021;-76
2021/09/14 10:16:02;;;;;;;0.00;0.00;;;40.30;35.00;;;;;;5034448;28;20052;-75
2021/09/14 10:18:30;;;;;;;0.00;0.00;;;40.70;34.50;;;;;;5033202;28;20106;-75
2021/09/14 10:20:57;;;;;;;0.00;0.00;;;41.10;34.00;;;;;;5034379;28;20037;-76
2021/09/14 10:23:30;;;;;;;0.00;0.00;;;41.60;33.70;;;;;;5034098;28;20034;-76
2021/09/14 10:26:07;;;;;;;0.00;0.00;;;42.20;33.20;;;;;;5034172;28;20033;-76
2021/09/14 10:28:48;;;;;;;0.00;0.00;;;42.90;32.60;;;;;;5034531;28;20041;-76
2021/09/14 10:31:30;;;;;;;0.00;0.00;;;43.00;32.20;;;;;;5032783;28;20071;-76
2021/09/14 10:34:04;;;;;;;0.00;0.00;;;43.10;31.80;;;;;;5033860;28;20120;-75
2021/09/14 10:36:43;;;;;;;0.10;0.10;;;43.30;31.70;;;;;;5034205;28;20075;-76
2021/09/14 10:39:38;;;;;;;0.00;0.00;;;43.60;31.50;;;;;;5034317;28;20402;-78
2021/09/14 10:42:20;;;;;;;0.00;0.00;;;44.10;31.30;;;;;;5033803;28;20037;-76
2021/09/14 10:44:49;;;;;;;0.00;0.00;;;44.50;30.80;;;;;;5033676;28;20029;-75
2021/09/14 10:47:19;;;;;;;0.10;0.10;;;44.70;30.50;;;;;;5033645;28;20037;-74
2021/09/14 10:50:03;;;;;;;0.10;0.10;;;44.90;30.20;;;;;;5033931;28;20036;-75
2021/09/14 10:52:33;;;;;;;0.10;0.10;;;45.10;30.10;;;;;;5034057;28;20025;-77
2021/09/14 10:55:17;;;;;;;0.20;0.20;;;45.30;29.80;;;;;;5034266;28;20465;-76
2021/09/14 10:57:47;;;;;;;0.05;0.05;;;45.50;29.60;;;;;;5048320;28;20087;-78
2021/09/14 11:00:18;;;;;;;0.00;0.00;;;45.80;29.70;;;;;;5034018;28;20033;-77
2021/09/14 11:03:02;;;;;;;0.10;0.10;;;46.00;29.40;;;;;;5033980;28;20116;-77
2021/09/14 11:05:32;;;;;;;0.00;0.00;;;46.30;29.40;;;;;;5033675;28;20477;-76
2021/09/14 11:08:04;;;;;;;0.10;0.10;;;46.70;29.30;;;;;;5033914;28;20026;-76
2021/09/14 11:10:39;;;;;;;0.10;0.10;;;46.90;29.10;;;;;;5034185;28;20021;-76
2021/09/14 11:13:05;;;;;;;0.10;0.10;;;47.10;29.10;;;;;;5033626;28;20469;-77
2021/09/14 11:15:31;;;;;;;0.10;0.10;;;47.20;29.00;;;;;;5034119;28;20109;-76
2021/09/14 11:17:57;;;;;;;0.10;0.10;;;47.40;28.80;;;;;;5034292;28;20488;-76
2021/09/14 11:20:26;;;;;;;0.10;0.10;;;47.60;28.80;;;;;;5034535;28;20029;-77
2021/09/14 11:22:52;;;;;;;0.10;0.10;;;47.70;28.60;;;;;;5034202;28;20142;-77
2021/09/14 11:25:28;;;;;;;0.10;0.10;;;47.60;28.50;;;;;;5034056;28;20033;-77
2021/09/14 11:28:13;;;;;;;0.10;0.10;;;47.70;28.40;;;;;;5033717;28;20107;-75
2021/09/14 11:30:40;;;;;;;0.10;0.10;;;47.60;28.30;;;;;;5034066;28;20021;-76
2021/09/14 11:33:08;;;;;;;0.10;0.10;;;47.50;28.30;;;;;;5032505;28;20030;-78
2021/09/14 11:35:36;;;;;;;0.10;0.10;;;47.50;28.30;;;;;;5032926;28;20026;-77
2021/09/14 11:38:06;;;;;;;0.10;0.10;;;47.40;28.20;;;;;;5032143;28;20033;-75
2021/09/14 11:40:47;;;;;;;0.10;0.10;;;47.50;28.20;;;;;;5033121;28;20268;-76
2021/09/14 11:43:29;;;;;;;0.10;0.10;;;47.50;28.10;;;;;;5033032;28;20034;-78
2021/09/14 11:45:58;;;;;;;0.10;0.10;;;47.60;28.10;;;;;;5034076;28;20108;-76
2021/09/14 11:48:27;;;;;;;0.10;0.10;;;47.80;28.20;;;;;;5033354;28;20115;-77
2021/09/14 11:51:10;;;;;;;0.10;0.10;;;47.80;28.00;;;;;;5032871;28;20029;-76
2021/09/14 11:53:39;;;;;;;0.10;0.10;;;47.70;28.00;;;;;;5034897;28;20470;-74
2021/09/14 11:56:14;;;;;;;0.20;0.20;;;47.80;28.00;;;;;;5033464;28;20045;-76
2021/09/14 11:58:43;;;;;;;0.10;0.10;;;47.90;27.80;;;;;;5034560;28;20123;-76
2021/09/14 12:01:10;;;;;;;0.20;0.20;;;48.00;27.80;;;;;;5035779;28;20026;-74
2021/09/14 12:03:54;;;;;;;0.00;0.00;;;48.00;27.80;;;;;;5036884;28;20029;-75
2021/09/14 12:06:32;;;;;;;0.10;0.10;;;47.60;27.70;;;;;;5036977;28;20473;-76
2021/09/14 12:09:01;;;;;;;0.10;0.10;;;47.20;27.90;;;;;;5036625;28;20025;-75
2021/09/14 12:11:30;;;;;;;0.10;0.10;;;47.30;28.00;;;;;;5036616;28;20490;-76
2021/09/14 12:14:00;;;;;;;0.10;0.10;;;47.30;28.00;;;;;;5037025;28;20032;-76
2021/09/14 12:16:52;;;;;;;0.10;0.10;;;47.30;27.90;;;;;;5036668;28;20018;-75
2021/09/14 12:19:18;;;;;;;;;;;47.40;27.90;;;;;;5036622;28;20025;-77
2021/09/14 12:21:45;;;;;;;0.10;0.10;;;47.50;28.20;;;;;;5035821;28;20323;-76
2021/09/14 12:24:11;;;;;;;0.00;0.00;;;47.80;28.20;;;;;;5037395;28;20030;-77
2021/09/14 12:26:41;;;;;;;0.10;0.10;;;47.80;28.00;;;;;;5036203;28;20496;-77
2021/09/14 12:29:08;;;;;;;0.10;0.10;;;47.70;28.00;;;;;;5036620;28;20029;-76
2021/09/14 12:31:35;;;;;;;0.10;0.10;;;47.50;27.90;;;;;;5036716;28;20079;-77
2021/09/14 12:34:01;;;;;;;0.00;0.00;;;47.40;27.90;;;;;;5036542;28;20091;-76
2021/09/14 12:36:27;;;;;;;0.00;0.00;;;47.20;28.00;;;;;;5036293;28;20475;-76
2021/09/14 12:38:52;;;;;;;0.00;0.00;;;46.60;28.00;;;;;;5036242;28;20026;-76
2021/09/14 12:41:18;;;;;;;0.00;0.00;;;46.00;28.00;;;;;;5036187;28;20100;-76
2021/09/14 12:43:46;;;;;;;0.00;0.00;;;45.00;28.20;;;;;;5036076;28;20476;-75
2021/09/14 12:46:12;;;;;;;0.00;0.00;;;43.90;28.30;;;;;;5036045;28;20048;-71
2021/09/14 12:48:38;;;;;;;0.00;0.00;;;42.50;28.60;;;;;;5035860;28;20073;-75
2021/09/14 12:51:05;;;;;;;0.00;0.00;;;41.30;29.10;;;;;;5036375;28;20038;-77
2021/09/14 12:53:31;;;;;;;0.00;0.00;;;41.20;29.20;;;;;;5035991;28;20037;-78
2021/09/14 12:55:57;;;;;;;0.00;0.00;;;41.50;29.10;;;;;;5036040;28;20049;-78
2021/09/14 12:58:23;;;;;;;0.00;0.00;;;40.90;29.00;;;;;;5035568;28;20026;-79
2021/09/14 13:00:49;;;;;;;0.00;0.00;;;39.90;29.10;;;;;;5035999;28;20064;-81
2021/09/14 13:03:15;;;;;;;0.00;0.00;;;38.70;29.60;;;;;;5035185;28;20064;-77
2021/09/14 13:05:42;;;;;;;0.00;0.00;;;37.50;30.20;;;;;;5035592;28;20040;-78
2021/09/14 13:08:08;;;;;;;0.00;0.00;;;36.40;30.90;;;;;;5035458;28;20540;-78
2021/09/14 13:10:34;;;;;;;0.00;0.00;;;35.60;31.50;;;;;;5034983;28;20028;-77
2021/09/14 13:18:31;;;;;;;0.00;0.00;;;36.10;31.90;;;;;;5035289;28;20060;-77
2021/09/14 13:20:57;;;;;;;0.00;0.00;;;36.60;31.60;;;;;;5035435;28;20470;-77
2021/09/14 13:23:23;;;;;;;0.00;0.00;;;37.20;31.20;;;;;;5033812;28;20033;-77
2021/09/14 13:25:52;;;;;;;0.00;0.00;;;37.50;30.80;;;;;;5035577;28;20044;-77
2021/09/14 13:28:19;;;;;;;0.00;0.00;;;37.80;30.60;;;;;;5035045;28;20061;-78
2021/09/14 13:30:44;;;;;;;0.00;0.00;;;38.30;30.30;;;;;;5033645;28;20029;-77
2021/09/14 13:33:10;;;;;;;0.00;0.00;;;38.90;30.10;;;;;;5033783;28;20032;-77
2021/09/14 13:35:36;;;;;;;0.00;0.00;;;39.60;29.90;;;;;;5034958;28;20032;-77
2021/09/14 13:38:02;;;;;;;0.00;0.00;;;40.20;29.70;;;;;;5034906;28;20456;-77
2021/09/14 13:40:28;;;;;;;0.00;0.00;;;40.60;29.50;;;;;;5034636;28;20109;-78
2021/09/14 13:42:56;;;;;;;0.00;0.00;;;40.90;29.30;;;;;;5034509;28;20492;-77
2021/09/14 13:48:08;;;;;;;0.03;0.03;;;39.90;29.20;;;;;;5034764;28;20036;-78
2021/09/14 13:50:34;;;;;;;0.00;0.00;;;39.50;29.50;;;;;;5034775;28;20033;-77
2021/09/14 13:53:00;;;;;;;0.00;0.00;;;39.50;29.60;;;;;;5034436;28;20374;-76
2021/09/14 13:55:26;;;;;;;0.00;0.00;;;39.70;29.60;;;;;;5034722;28;20054;-77
2021/09/14 13:57:52;;;;;;;0.00;0.00;;;39.90;29.50;;;;;;5034786;28;20358;-78
2021/09/14 14:00:18;;;;;;;0.00;0.00;;;40.10;29.50;;;;;;5034471;28;20041;-79